2016 Runtoberfest Logo

2016 Runtoberfest 5K
McMinnville High School, McMinnville, OR
October 1st, 2016

Huber Timing Home

Finishers:93
Male:38
Female:55

Email timing@hubertiming.com with any questions or corrections. Please include your bib number if you have it.

Place Bib Name Gender Age City State Chip Time Chip Pace Gender Place Age Group Age Group Place Time to Start Gun Time
1 621 BRIAN BERNIER M 33 MCMINNVILLE OR 00:16:59 05:28 1 of 38 M 30-39 1 of 9 00:00:09 00:17:08
2 644 MARK MCCULLOCH M 35 MCMINNVILLE OR 00:17:30 05:38 2 of 38 M 30-39 2 of 9 00:00:03 00:17:33
3 586 BENJAMIN THOMAS M 32 PORTLAND OR 00:18:04 05:49 3 of 38 M 30-39 3 of 9 00:00:03 00:18:07
4 619 CHASE ESTEP M 26 NEWBERG OR 00:20:23 06:34 4 of 38 M 20-29 1 of 8 00:00:03 00:20:26
5 592 BRETT CAMPBELL M 24 MCMINNVILLE OR 00:20:51 06:43 5 of 38 M 20-29 2 of 8 00:00:04 00:20:55
6 643 JAMES DILGER M 38 SALEM OR 00:21:30 06:56 6 of 38 M 30-39 4 of 9 00:00:02 00:21:32
7 594 ANDREW CARLSON M 26 TIGARD OR 00:22:00 07:05 7 of 38 M 20-29 3 of 8 00:00:04 00:22:04
8 601 DAVE RUCKER M 49 MCMINNVILLE OR 00:22:11 07:09 8 of 38 M 40-49 1 of 7 00:00:09 00:22:20
9 649 BEN HEUBERGER M 42 MCMINNVILLE OR 00:22:28 07:15 9 of 38 M 40-49 2 of 7 00:00:06 00:22:34
10 648 REID KIMURA M 33 MCMINNVILLE OR 00:22:52 07:22 10 of 38 M 30-39 5 of 9 00:00:19 00:23:11
11 584 MICHAEL HAMPTON M 47 MCMINNVILLE OR 00:23:00 07:25 11 of 38 M 40-49 3 of 7 00:00:05 00:23:05
12 647 ERIK SVEC M 47 MCMINNVILLE OR 00:23:17 07:30 12 of 38 M 40-49 4 of 7 00:00:17 00:23:34
13 580 BRADY COY M 46 MCMINNVILLE OR 00:23:36 07:36 13 of 38 M 40-49 5 of 7 00:00:06 00:23:42
14 593 MARCOS VIGIL M 32 PORTLAND OR 00:23:37 07:37 14 of 38 M 30-39 6 of 9 00:00:05 00:23:42
15 646 JOANNA VICKNAIR F 50 MCMINNVILLE OR 00:24:54 08:02 1 of 55 F 50-59 1 of 10 00:00:09 00:25:03
16 604 RANDY WESTON M 58 CARLTON OR 00:24:59 08:03 15 of 38 M 50-59 1 of 5 00:00:06 00:25:05
17 620 MATTHEW RASMUSSEN M 32 KEIZER OR 00:25:04 08:05 16 of 38 M 30-39 7 of 9 00:00:09 00:25:13
18 596 JOE LAVELLE M 30 SALEM OR 00:25:10 08:07 17 of 38 M 30-39 8 of 9 00:00:06 00:25:16
19 606 JOHN MARTINEZ M 49 MCMINNVILLE OR 00:25:36 08:15 18 of 38 M 40-49 6 of 7 00:00:03 00:25:39
20 598 JESSICA GORDON F 31 MCMINNVILLE OR 00:26:40 08:36 2 of 55 F 30-39 1 of 11 00:00:12 00:26:52
21 2913 LAURA NEILSON F 41 DAYTON OR 00:27:08 08:45 3 of 55 F 40-49 1 of 14 00:00:12 00:27:20
22 607 RYAN MARTINEZ M 13 MCMINNVILLE OR 00:27:56 09:00 19 of 38 M 19 and Under 1 of 5 00:00:04 00:28:00
23 591 MARSHALL KENNEDY M 28 SEATTLE WA 00:28:21 09:09 20 of 38 M 20-29 4 of 8 00:00:05 00:28:26
24 574 KELLEY KENNEDY F 55 MCMINNVILLE OR 00:28:22 09:09 4 of 55 F 50-59 2 of 10 00:00:05 00:28:27
25 597 MACKENZIE FRASER F 20 MCMINNVILLE OR 00:28:34 09:13 5 of 55 F 20-29 1 of 11 00:00:09 00:28:43
26 624 MADELINE NOE F 21 SALEM OR 00:28:34 09:13 6 of 55 F 20-29 2 of 11 00:00:09 00:28:43
27 612 AUGUST PREUIT M 24 MCMINNVILLE OR 00:28:50 09:18 21 of 38 M 20-29 5 of 8 00:00:07 00:28:57
28 642 GREG DILGER M 66 SALEM OR 00:29:13 09:25 22 of 38 M 60-69 1 of 3 00:00:04 00:29:17
29 590 CAMERON SMITH M 15 MCMINNVILLE OR 00:29:47 09:36 23 of 38 M 19 and Under 2 of 5 00:00:07 00:29:54
30 618 BEN JOHNSTON M 38 MCMINNVILLE OR 00:29:48 09:37 24 of 38 M 30-39 9 of 9 00:07:20 00:37:08
31 616 KRISTINA SAUCEDA F 38 MCMINNVILLE OR 00:30:08 09:43 7 of 55 F 30-39 2 of 11 00:00:02 00:30:10
32 645 LAURA SYRING F 41 MCMINNVILLE OR 00:30:13 09:45 8 of 55 F 40-49 2 of 14 00:00:12 00:30:25
33 615 CYNTHIA VALENCIA F 31 MCMINNVILLE OR 00:30:16 09:46 9 of 55 F 30-39 3 of 11 00:00:03 00:30:19
34 570 KERI BARTON F 27 MCMINNVILLE OR 00:30:40 09:53 10 of 55 F 20-29 3 of 11 00:00:12 00:30:52
35 629 ADREANA MENDOZA F 25 MCMINNVILLE OR 00:30:47 09:56 11 of 55 F 20-29 4 of 11 00:00:07 00:30:54
36 665 NICHOLAS NYBURG M 11 00:31:04 10:01 25 of 38 M 19 and Under 3 of 5 00:00:11 00:31:15
37 667 WILLIAM NICE M 12 00:31:05 10:01 26 of 38 M 19 and Under 4 of 5 00:00:11 00:31:16
38 664 JEFF SENN M 59 00:31:14 10:04 27 of 38 M 50-59 2 of 5 00:00:29 00:31:43
39 657 NATHANAEL PORTER M 11 MCMINNVILLE OR 00:31:49 10:16 28 of 38 M 19 and Under 5 of 5 00:00:07 00:31:56
40 656 ROBERT PORTER M 53 MCMINNVILLE OR 00:32:00 10:19 29 of 38 M 50-59 3 of 5 00:00:07 00:32:07
41 588 ANN SMITH F 73 MONMOUTH OR 00:32:29 10:28 12 of 55 F 70+ 1 of 2 00:00:06 00:32:35
42 2901 SARAH HOLLENBECK F 38 MCMINNVILLE OR 00:33:02 10:39 13 of 55 F 30-39 4 of 11 00:00:12 00:33:14
43 575 GWEN DIMMITT F 38 SHERIDAN OR 00:33:32 10:49 14 of 55 F 30-39 5 of 11 00:00:09 00:33:41
44 577 STEPHANIE SEET F 26 MCMINNVILLE OR 00:33:49 10:54 15 of 55 F 20-29 5 of 11 00:00:13 00:34:02
45 613 ESTHER HERNANDEZ F 52 MCMINNVILLE OR 00:34:02 10:58 16 of 55 F 50-59 3 of 10 00:00:14 00:34:16
46 622 CADENCE BERNIER F 9 MCMINNVILLE OR 00:34:54 11:15 17 of 55 F 19 and Under 1 of 3 00:00:08 00:35:02
47 2906 SCOTT KAPER M 47 MCMINNVILLE OR 00:35:44 11:31 30 of 38 M 40-49 7 of 7 00:00:05 00:35:49
48 2907 FIONA KAPER F 9 MCMINNVILLE OR 00:35:45 11:32 18 of 55 F 19 and Under 2 of 3 00:00:04 00:35:49
49 623 BELLA BERNIER F 8 MCMINNVILLE OR 00:35:58 11:36 19 of 55 F 19 and Under 3 of 3 00:00:08 00:36:06
50 627 LISA ANDERSON F 41 MCMINNVILLE OR 00:38:18 12:21 20 of 55 F 40-49 3 of 14 00:00:17 00:38:35
51 630 MARISOL CAMPUZANO F 28 MCMINNVILLE OR 00:38:51 12:32 21 of 55 F 20-29 6 of 11 00:00:15 00:39:06
52 582 VALERIE ROGERS F 46 MCMINNVILLE OR 00:39:17 12:40 22 of 55 F 40-49 4 of 14 00:00:14 00:39:31
53 654 SHANE WALKER M 29 PORTLAND OR 00:39:18 12:40 31 of 38 M 20-29 6 of 8 00:00:14 00:39:32
54 578 SUSAN MEANS F 83 MCMINNVILLE OR 00:39:35 12:46 23 of 55 F 70+ 2 of 2 00:00:11 00:39:46
55 579 DG COY F 46 MCMINNVILLE OR 00:39:35 12:46 24 of 55 F 40-49 5 of 14 00:00:11 00:39:46
56 585 LAURA HAMPTON F 47 MCMINNVILLE OR 00:39:36 12:46 25 of 55 F 40-49 6 of 14 00:00:11 00:39:47
57 589 ANGIE SMITH F 41 MCMINNVILLE OR 00:42:27 13:41 26 of 55 F 40-49 7 of 14 00:00:07 00:42:34
58 603 RACHELLE KENNEDY F 35 LAFAYETTE OR 00:42:32 13:43 27 of 55 F 30-39 6 of 11 00:00:17 00:42:49
59 605 SHELLY SHILHANEK F 53 MCMINNVILLE OR 00:42:38 13:45 28 of 55 F 50-59 4 of 10 00:00:19 00:42:57
60 625 CAROLYN SMITH F 48 MCMINNVILLENNVILLE OR 00:42:39 13:45 29 of 55 F 40-49 8 of 14 00:00:18 00:42:57
61 587 RITA BLADOW F 67 GRESHAM OR 00:42:40 13:46 30 of 55 F 60-69 1 of 4 00:00:07 00:42:47
62 641 PATTY BRANDT F 61 SNOHOMISH WA 00:44:31 14:21 31 of 55 F 60-69 2 of 4 00:00:16 00:44:47
63 639 ALAN HAY M 77 MCMINNVILLE OR 00:44:48 14:27 32 of 38 M 70+ 1 of 1 00:00:26 00:45:14
64 609 DIANE KROEHNERT F 56 MCMINNVILLE OR 00:45:01 14:31 32 of 55 F 50-59 5 of 10 00:00:12 00:45:13
65 611 RON REID M 52 MCMINNVILLE OR 00:45:16 14:36 33 of 38 M 50-59 4 of 5 00:00:15 00:45:31
66 650 DENNIS KROEHNERT M 68 MCMINNVILLE OR 00:45:27 14:39 34 of 38 M 60-69 2 of 3 00:00:13 00:45:40
67 632 DARLA MADDEN F 53 MCMINNVILLE OR 00:46:35 15:01 33 of 55 F 50-59 6 of 10 00:00:19 00:46:54
68 660 GRADY WINDER M 29 NEWBERG OR 00:46:51 15:07 35 of 38 M 20-29 7 of 8 00:00:30 00:47:21
69 2910 COREY BRANDT M 28 MCMINNVILLE OR 00:46:51 15:07 36 of 38 M 20-29 8 of 8 00:00:28 00:47:19
70 2911 TRACY BRANDT F 56 MCMINNVILLE OR 00:46:52 15:07 34 of 55 F 50-59 7 of 10 00:00:27 00:47:19
71 659 ALLYSON RAINE F 28 NEWBERG OR 00:47:00 15:09 35 of 55 F 20-29 7 of 11 00:00:31 00:47:31
72 608 KIM PARR F 39 AMITY OR 00:47:39 15:22 36 of 55 F 30-39 7 of 11 00:00:08 00:47:47
73 617 VICTORY ALEXANDER F 40 MCMINNVILLE OR 00:47:39 15:22 37 of 55 F 40-49 9 of 14 00:00:08 00:47:47
74 638 JUDI HERUBIN F 56 AMITY OR 00:50:05 16:09 38 of 55 F 50-59 8 of 10 00:00:26 00:50:31
75 637 KRISTY KRAEMER F 47 AMITY OR 00:50:06 16:09 39 of 55 F 40-49 10 of 14 00:00:25 00:50:31
76 583 KIANA YOUNG F 23 MCMINNVILLE OR 00:50:21 16:14 40 of 55 F 20-29 8 of 11 00:00:13 00:50:34
77 581 ALYSSA GRANT F 23 MCMINNVILLE OR 00:50:22 16:14 41 of 55 F 20-29 9 of 11 00:00:13 00:50:35
78 595 SARA AZORR F 24 MCMINNVILLE OR 00:50:24 16:15 42 of 55 F 20-29 10 of 11 00:00:12 00:50:36
79 573 MEREDITH NELSON F 43 MCMINNVILLE OR 00:50:44 16:22 43 of 55 F 40-49 11 of 14 00:00:30 00:51:14
80 663 MINDY SENN F 51 00:50:46 16:22 44 of 55 F 50-59 9 of 10 00:00:28 00:51:14
81 614 TRACI BROWN F 44 MCMINNVILLE OR 00:51:16 16:32 45 of 55 F 40-49 12 of 14 00:00:17 00:51:33
82 600 JEFF HUMMEL M 65 MCMINNVILLE OR 00:51:25 16:35 37 of 38 M 60-69 3 of 3 00:00:17 00:51:42
83 599 KELLEEN MACY F 39 MCMINNVILLE OR 00:51:26 16:35 46 of 55 F 30-39 8 of 11 00:00:16 00:51:42
84 602 JAN ALLEN F 62 MCMINNVILLE OR 00:51:46 16:42 47 of 55 F 60-69 3 of 4 00:00:24 00:52:10
85 571 MALINDA ASADA F 46 CARLTON OR 00:51:47 16:42 48 of 55 F 40-49 13 of 14 00:00:24 00:52:11
86 635 BOB MICHAEL M 54 SALEM OR 00:52:38 16:58 38 of 38 M 50-59 5 of 5 00:00:20 00:52:58
87 640 CATHY BURNS F 47 MCMINNVILLE OR 00:52:40 16:59 49 of 55 F 40-49 14 of 14 00:00:19 00:52:59
88 634 MARY MORTON F 57 SALEM OR 00:52:40 16:59 50 of 55 F 50-59 10 of 10 00:00:20 00:53:00
89 2903 AIRAN CEBALLOS F 33 SHERIDAN OR 00:55:51 18:01 51 of 55 F 30-39 9 of 11 00:00:22 00:56:13
90 2904 CHARLETT MACEIRA F 63 MCMINNVILLE OR 00:55:53 18:01 52 of 55 F 60-69 4 of 4 00:00:24 00:56:17
91 2914 LAURA TIOGANGCO F 33 MCMINNVILLE OR 00:57:17 18:28 53 of 55 F 30-39 10 of 11 00:00:26 00:57:43
92 572 ALYSSA HUMBERSTON F 25 MCMINNVILLE OR 00:57:19 18:29 54 of 55 F 20-29 11 of 11 00:00:24 00:57:43
93 2912 AMY BEAL F 33 DUNDEE OR 00:57:32 18:33 55 of 55 F 30-39 11 of 11 00:00:27 00:57:59
Huber Timing